Time;durP1;ratioP1;P1;durP2;ratioP2;P2;SDS_P1;SDS_P2;PMS_P1;PMS_P2;Temp;Humidity;BMP_temperature;BMP_pressure;BME280_temperature;BME280_humidity;BME280_pressure;Samples;Min_cycle;Max_cycle;Signal;HPM_P1;HPM_P2
2021/12/28 00:01:17;;;;;;;35.95;14.68;;;0.80;99.90;;;;;;5030371;28;20253;-73
2021/12/28 00:03:45;;;;;;;30.98;12.05;;;0.80;99.90;;;;;;5030469;28;20170;-73
2021/12/28 00:06:12;;;;;;;26.95;13.45;;;0.80;99.90;;;;;;5030433;28;20178;-73
2021/12/28 00:08:38;;;;;;;30.23;13.02;;;0.70;99.90;;;;;;5030292;28;20166;-73
2021/12/28 00:11:06;;;;;;;26.88;12.20;;;0.70;99.90;;;;;;5030364;28;20619;-73
2021/12/28 00:13:34;;;;;;;34.03;13.02;;;0.60;99.90;;;;;;5012702;28;20588;-74
2021/12/28 00:18:27;;;;;;;25.30;11.90;;;0.50;99.90;;;;;;5030230;28;20177;-73
2021/12/28 00:20:56;;;;;;;32.22;13.98;;;0.50;99.90;;;;;;5029880;28;20181;-74
2021/12/28 00:23:28;;;;;;;35.15;14.73;;;0.60;99.90;;;;;;5030060;28;20210;-74
2021/12/28 00:25:55;;;;;;;32.63;14.35;;;0.60;99.90;;;;;;5029952;28;20184;-74
2021/12/28 00:28:22;;;;;;;34.90;13.50;;;0.60;99.90;;;;;;5012311;28;20201;-73
2021/12/28 00:30:49;;;;;;;33.50;14.52;;;0.60;99.90;;;;;;5029853;28;20240;-73
2021/12/28 00:33:16;;;;;;;33.97;15.05;;;0.60;99.90;;;;;;5012133;28;20181;-74
2021/12/28 00:35:43;;;;;;;32.33;14.43;;;0.70;99.90;;;;;;5029805;28;20296;-73
2021/12/28 00:38:14;;;;;;;38.00;14.82;;;0.70;99.90;;;;;;5028525;28;20205;-73
2021/12/28 00:40:41;;;;;;;39.92;15.82;;;0.80;99.90;;;;;;5029806;28;20186;-74
2021/12/28 00:43:07;;;;;;;31.95;14.00;;;0.70;99.90;;;;;;5029781;28;20693;-73
2021/12/28 00:45:33;;;;;;;32.30;13.35;;;0.70;99.90;;;;;;5029636;28;20196;-73
2021/12/28 00:47:59;;;;;;;42.47;14.57;;;0.70;99.90;;;;;;5029620;28;20223;-73
2021/12/28 00:50:26;;;;;;;30.05;13.73;;;0.70;99.90;;;;;;5029709;28;20593;-73
2021/12/28 00:52:55;;;;;;;35.55;13.82;;;0.70;99.90;;;;;;5029686;28;20166;-73
2021/12/28 00:55:23;;;;;;;32.92;15.45;;;0.70;99.90;;;;;;5029454;28;20202;-73
2021/12/28 00:57:49;;;;;;;29.88;15.88;;;0.80;99.90;;;;;;5029567;28;20743;-72
2021/12/28 01:00:19;;;;;;;31.85;14.95;;;0.80;99.90;;;;;;5029670;28;20236;-73
2021/12/28 01:02:45;;;;;;;39.05;13.43;;;0.80;99.90;;;;;;5048426;28;20181;-73
2021/12/28 01:05:12;;;;;;;31.00;14.82;;;0.80;99.90;;;;;;5049300;28;20162;-73
2021/12/28 01:07:39;;;;;;;30.98;13.63;;;0.80;99.90;;;;;;5049222;28;20165;-73
2021/12/28 01:10:08;;;;;;;39.60;15.40;;;0.80;99.90;;;;;;5061357;28;20197;-73
2021/12/28 01:12:34;;;;;;;30.80;15.43;;;0.70;99.90;;;;;;5067790;28;20181;-73
2021/12/28 01:15:00;;;;;;;30.95;14.10;;;0.70;99.90;;;;;;5068999;28;20265;-73
2021/12/28 01:17:26;;;;;;;29.42;16.42;;;0.70;99.90;;;;;;5069039;28;20541;-73
2021/12/28 01:19:52;;;;;;;28.42;14.88;;;0.70;99.90;;;;;;5058694;28;20681;-73
2021/12/28 01:22:17;;;;;;;46.03;16.45;;;0.70;99.90;;;;;;5048868;28;20184;-73
2021/12/28 01:24:44;;;;;;;46.10;16.13;;;0.80;99.90;;;;;;5048900;28;20158;-73
2021/12/28 01:27:10;;;;;;;28.30;13.35;;;0.80;99.90;;;;;;5047731;28;20177;-73
2021/12/28 01:29:36;;;;;;;33.17;13.68;;;0.80;99.90;;;;;;5048981;28;20220;-73
2021/12/28 01:32:02;;;;;;;30.50;12.90;;;0.80;99.90;;;;;;5049005;28;20157;-73
2021/12/28 01:34:28;;;;;;;30.02;12.45;;;0.70;99.90;;;;;;5047544;28;20180;-73
2021/12/28 01:36:54;;;;;;;32.00;14.85;;;0.80;99.90;;;;;;5048978;28;20157;-73
2021/12/28 01:39:19;;;;;;;30.10;14.15;;;0.80;99.90;;;;;;5048942;28;20239;-73
2021/12/28 01:41:45;;;;;;;34.17;14.15;;;0.90;99.90;;;;;;5048913;28;20168;-73
2021/12/28 01:44:13;;;;;;;31.63;13.93;;;0.90;99.90;;;;;;5047559;28;20196;-73
2021/12/28 01:46:40;;;;;;;41.55;16.48;;;0.90;99.90;;;;;;5048869;28;20173;-73
2021/12/28 01:49:08;;;;;;;41.25;16.85;;;0.90;99.90;;;;;;5048781;28;20216;-73
2021/12/28 01:51:34;;;;;;;35.88;15.10;;;0.80;99.90;;;;;;5048927;28;20169;-73
2021/12/28 01:54:01;;;;;;;42.30;15.02;;;0.90;99.90;;;;;;5048776;28;20188;-73
2021/12/28 01:56:31;;;;;;;35.45;16.17;;;0.80;99.90;;;;;;5048753;28;20185;-73
2021/12/28 01:58:58;;;;;;;46.83;16.45;;;0.80;99.90;;;;;;5048482;28;20185;-72
2021/12/28 02:01:26;;;;;;;44.42;16.42;;;0.80;99.90;;;;;;5028942;28;20162;-72
2021/12/28 02:03:52;;;;;;;37.33;14.52;;;0.80;99.90;;;;;;5028842;28;20155;-73
2021/12/28 02:06:19;;;;;;;31.55;15.02;;;0.80;99.90;;;;;;5028852;28;20173;-73
2021/12/28 02:08:45;;;;;;;32.83;13.95;;;0.80;99.90;;;;;;5028675;28;20197;-73
2021/12/28 02:11:13;;;;;;;29.98;13.98;;;0.80;99.90;;;;;;5028865;28;20173;-73
2021/12/28 02:13:40;;;;;;;27.80;12.18;;;0.80;99.90;;;;;;5029994;28;20200;-73
2021/12/28 02:16:06;;;;;;;35.28;14.98;;;0.80;99.90;;;;;;5032384;28;20193;-73
2021/12/28 02:18:34;;;;;;;31.58;14.35;;;0.90;99.90;;;;;;5032347;28;20163;-73
2021/12/28 02:21:03;;;;;;;34.67;14.90;;;0.90;99.90;;;;;;5032254;28;20177;-73
2021/12/28 02:23:29;;;;;;;32.60;14.13;;;0.90;99.90;;;;;;5032186;28;20170;-73
2021/12/28 02:25:56;;;;;;;28.40;13.02;;;0.90;99.90;;;;;;5032269;28;20237;-73
2021/12/28 02:28:22;;;;;;;26.27;13.13;;;0.90;99.90;;;;;;5032287;28;20174;-73
2021/12/28 02:30:51;;;;;;;27.73;12.20;;;0.90;99.90;;;;;;5032019;28;20190;-73
2021/12/28 02:33:19;;;;;;;26.23;13.18;;;0.90;99.90;;;;;;5032176;28;20229;-73
2021/12/28 02:35:45;;;;;;;30.90;13.40;;;0.90;99.90;;;;;;5032132;28;20186;-73
2021/12/28 02:38:13;;;;;;;26.65;14.73;;;0.80;99.90;;;;;;5032149;28;20170;-73
2021/12/28 02:40:41;;;;;;;31.13;13.32;;;0.80;99.90;;;;;;5031911;28;20193;-72
2021/12/28 02:43:10;;;;;;;37.25;12.98;;;0.80;99.90;;;;;;5031934;28;20237;-73
2021/12/28 02:45:47;;;;;;;34.03;13.10;;;0.80;99.90;;;;;;5031915;28;20162;-72
2021/12/28 02:48:13;;;;;;;41.20;14.07;;;0.70;99.90;;;;;;5031892;28;20196;-73
2021/12/28 02:50:48;;;;;;;34.75;13.80;;;0.80;99.90;;;;;;5031827;28;20274;-73
2021/12/28 02:53:15;;;;;;;31.73;13.13;;;0.80;99.90;;;;;;5031667;28;20174;-73
2021/12/28 02:55:42;;;;;;;27.90;11.93;;;0.80;99.90;;;;;;5031636;28;20190;-73
2021/12/28 02:58:12;;;;;;;36.78;13.18;;;0.90;99.90;;;;;;5031680;28;20163;-72
2021/12/28 03:00:50;;;;;;;29.63;13.55;;;1.00;99.90;;;;;;5031370;28;20291;-72
2021/12/28 03:03:19;;;;;;;30.25;13.30;;;1.00;99.90;;;;;;5030207;28;20170;-72
2021/12/28 03:05:47;;;;;;;26.75;12.60;;;0.90;99.90;;;;;;5031511;28;20213;-73
2021/12/28 03:08:15;;;;;;;32.53;12.85;;;0.80;99.90;;;;;;5031440;28;20646;-73
2021/12/28 03:10:43;;;;;;;26.02;12.63;;;0.80;99.90;;;;;;5031288;28;20193;-73
2021/12/28 03:13:14;;;;;;;31.02;11.40;;;0.90;99.90;;;;;;5031306;28;20162;-73
2021/12/28 03:15:40;;;;;;;32.85;12.85;;;0.90;99.90;;;;;;5013586;28;20197;-73
2021/12/28 03:18:06;;;;;;;32.42;12.82;;;0.90;99.90;;;;;;5013469;28;20180;-73
2021/12/28 03:20:32;;;;;;;31.65;11.68;;;0.90;99.90;;;;;;5029682;28;20198;-73
2021/12/28 03:22:58;;;;;;;32.22;14.10;;;0.90;99.90;;;;;;5028693;28;20174;-72
2021/12/28 03:25:24;;;;;;;32.63;14.98;;;0.90;99.90;;;;;;5010628;28;20170;-73
2021/12/28 03:27:50;;;;;;;36.47;14.05;;;0.90;99.90;;;;;;5011507;28;20604;-73
2021/12/28 03:30:17;;;;;;;37.22;13.63;;;0.90;99.90;;;;;;5011202;28;20206;-73
2021/12/28 03:32:46;;;;;;;33.70;13.02;;;1.00;99.90;;;;;;5011498;28;20166;-73
2021/12/28 03:35:14;;;;;;;36.38;13.25;;;1.00;99.90;;;;;;5011144;28;20195;-73
2021/12/28 03:37:42;;;;;;;31.00;13.25;;;0.90;99.90;;;;;;4993759;28;20167;-73
2021/12/28 03:40:11;;;;;;;26.45;12.57;;;0.90;99.90;;;;;;5011198;28;20191;-73
2021/12/28 03:42:37;;;;;;;37.33;13.70;;;0.90;99.90;;;;;;4993513;28;20203;-73
2021/12/28 03:45:05;;;;;;;33.03;11.93;;;0.90;99.90;;;;;;5011020;28;20198;-73
2021/12/28 03:47:32;;;;;;;33.53;14.45;;;0.90;99.90;;;;;;5011063;28;20166;-72
2021/12/28 03:49:58;;;;;;;28.90;12.05;;;1.00;99.90;;;;;;5011250;28;20231;-73
2021/12/28 03:52:24;;;;;;;28.70;12.90;;;1.00;99.90;;;;;;5010910;28;20249;-73
2021/12/28 03:54:50;;;;;;;32.72;12.55;;;1.00;99.90;;;;;;4992980;28;20198;-73
2021/12/28 03:57:16;;;;;;;26.92;12.63;;;1.00;99.90;;;;;;5010729;28;20163;-73
2021/12/28 03:59:42;;;;;;;31.80;14.02;;;1.00;99.90;;;;;;5010521;28;20246;-73
2021/12/28 04:02:07;;;;;;;30.17;12.35;;;1.00;99.90;;;;;;5010816;28;20170;-73
2021/12/28 04:04:33;;;;;;;30.27;13.10;;;1.00;99.90;;;;;;5010795;28;20166;-73
2021/12/28 04:06:59;;;;;;;28.83;12.40;;;1.10;99.90;;;;;;5009862;28;20167;-73
2021/12/28 04:12:11;;;;;;;35.80;14.60;;;1.00;99.90;;;;;;5030036;28;20177;-73
2021/12/28 04:14:36;;;;;;;38.20;13.23;;;1.10;99.90;;;;;;5029921;28;20234;-73
2021/12/28 04:17:03;;;;;;;47.15;15.18;;;1.10;99.90;;;;;;5030152;28;20158;-73
2021/12/28 04:19:30;;;;;;;44.38;16.30;;;1.10;99.90;;;;;;5012206;28;20217;-73
2021/12/28 04:21:57;;;;;;;27.90;13.82;;;1.10;99.90;;;;;;5029905;28;20185;-72
2021/12/28 04:24:23;;;;;;;45.85;16.00;;;1.10;99.90;;;;;;5012354;28;20185;-73
2021/12/28 04:26:49;;;;;;;40.00;15.18;;;1.10;99.90;;;;;;5029875;28;20507;-72
2021/12/28 04:29:15;;;;;;;49.53;15.00;;;1.00;99.90;;;;;;5029840;28;20227;-73
2021/12/28 04:31:41;;;;;;;46.38;16.30;;;0.90;99.90;;;;;;5029999;28;20188;-73
2021/12/28 04:34:07;;;;;;;39.47;14.18;;;0.90;99.90;;;;;;5029783;28;20188;-73
2021/12/28 04:36:33;;;;;;;37.50;15.70;;;1.00;99.90;;;;;;5029616;28;20193;-73
2021/12/28 04:38:59;;;;;;;37.35;15.90;;;1.10;99.90;;;;;;5029629;28;20197;-73
2021/12/28 04:41:25;;;;;;;35.55;14.00;;;1.10;99.90;;;;;;5029617;28;20155;-72
2021/12/28 04:43:51;;;;;;;33.42;15.60;;;1.00;99.90;;;;;;5029804;28;20160;-73
2021/12/28 04:46:17;;;;;;;47.65;16.10;;;1.00;99.90;;;;;;5029717;28;20193;-73
2021/12/28 04:48:43;;;;;;;34.38;15.85;;;1.10;99.90;;;;;;5029585;28;20185;-73
2021/12/28 04:51:09;;;;;;;49.75;17.63;;;1.10;99.90;;;;;;5029459;28;20158;-73
2021/12/28 04:53:35;;;;;;;49.65;17.92;;;1.00;99.90;;;;;;5029603;28;20185;-73
2021/12/28 04:56:01;;;;;;;50.95;16.95;;;1.00;99.90;;;;;;5011690;28;20194;-72
2021/12/28 04:58:27;;;;;;;41.00;14.57;;;1.10;99.90;;;;;;5011648;28;20658;-73
2021/12/28 05:00:53;;;;;;;40.78;14.30;;;1.10;99.90;;;;;;5029190;28;20226;-73
2021/12/28 05:03:20;;;;;;;39.08;16.83;;;1.10;99.90;;;;;;5029565;28;20209;-73
2021/12/28 05:05:48;;;;;;;43.55;15.70;;;1.10;99.90;;;;;;5029344;28;20186;-73
2021/12/28 05:08:15;;;;;;;43.88;15.75;;;1.10;99.90;;;;;;5029278;28;20204;-73
2021/12/28 05:10:42;;;;;;;33.88;15.40;;;1.00;99.90;;;;;;5029181;28;20190;-73
2021/12/28 05:13:09;;;;;;;43.45;15.27;;;1.00;99.90;;;;;;5029356;28;20665;-73
2021/12/28 05:15:34;;;;;;;34.83;15.75;;;1.00;99.90;;;;;;5029204;28;20186;-73
2021/12/28 05:18:01;;;;;;;32.85;13.73;;;1.10;99.90;;;;;;5029154;28;20162;-73
2021/12/28 05:20:26;;;;;;;31.48;14.00;;;1.10;99.90;;;;;;5029036;28;20261;-73
2021/12/28 05:22:52;;;;;;;31.00;12.95;;;1.10;99.90;;;;;;5029107;28;20182;-72
2021/12/28 05:25:18;;;;;;;40.67;14.73;;;1.10;99.90;;;;;;5029169;28;20162;-73
2021/12/28 05:27:44;;;;;;;35.78;15.63;;;1.10;99.90;;;;;;5029214;28;20169;-73
2021/12/28 05:30:10;;;;;;;39.53;14.32;;;1.10;99.90;;;;;;5011356;28;20224;-73
2021/12/28 05:32:37;;;;;;;43.85;15.52;;;1.00;99.90;;;;;;5029162;28;20158;-73
2021/12/28 05:35:06;;;;;;;41.00;14.27;;;1.00;99.90;;;;;;5028947;28;20198;-73
2021/12/28 05:37:33;;;;;;;42.10;13.52;;;1.10;99.90;;;;;;5028851;28;20158;-73
2021/12/28 05:39:59;;;;;;;38.75;15.20;;;1.10;99.90;;;;;;5010964;28;20198;-73
2021/12/28 05:42:25;;;;;;;46.92;16.02;;;1.10;99.90;;;;;;5029082;28;20169;-73
2021/12/28 05:44:51;;;;;;;38.45;16.58;;;1.10;99.90;;;;;;5028957;28;20162;-73
2021/12/28 05:47:19;;;;;;;36.63;13.43;;;1.10;99.90;;;;;;5028943;28;20551;-73
2021/12/28 05:49:45;;;;;;;46.40;14.73;;;1.10;99.90;;;;;;5031927;28;20586;-73
2021/12/28 05:52:11;;;;;;;41.80;15.85;;;1.10;99.90;;;;;;5032842;28;20170;-73
2021/12/28 05:54:37;;;;;;;41.92;15.60;;;1.20;99.90;;;;;;5032672;28;20581;-73
2021/12/28 05:57:03;;;;;;;37.33;14.77;;;1.20;99.90;;;;;;5015036;28;20261;-72
2021/12/28 05:59:29;;;;;;;38.65;14.90;;;1.20;99.90;;;;;;5032582;28;20220;-73
2021/12/28 06:01:56;;;;;;;40.50;14.73;;;1.10;99.90;;;;;;5015074;28;20189;-73
2021/12/28 06:04:22;;;;;;;42.92;15.95;;;1.10;99.90;;;;;;5032723;28;20162;-72
2021/12/28 06:06:48;;;;;;;45.45;16.10;;;1.10;99.90;;;;;;5032536;28;20170;-73
2021/12/28 06:09:13;;;;;;;54.95;17.40;;;1.10;99.90;;;;;;5032471;28;20633;-72
2021/12/28 06:11:39;;;;;;;41.05;16.10;;;1.10;99.90;;;;;;5032430;28;20230;-73
2021/12/28 06:14:05;;;;;;;39.95;17.63;;;1.10;99.90;;;;;;5032382;28;20166;-73
2021/12/28 06:16:34;;;;;;;40.85;17.23;;;1.20;99.90;;;;;;5032147;28;20182;-73
2021/12/28 06:19:01;;;;;;;40.10;16.70;;;1.20;99.90;;;;;;5032233;28;20194;-73
2021/12/28 06:21:30;;;;;;;50.05;17.00;;;1.10;99.90;;;;;;5032126;28;20177;-73
2021/12/28 06:23:59;;;;;;;45.38;16.15;;;1.20;99.90;;;;;;5032243;28;20154;-73
2021/12/28 06:26:27;;;;;;;36.75;17.00;;;1.30;99.90;;;;;;5032153;28;20155;-73
2021/12/28 06:28:53;;;;;;;45.97;16.05;;;1.20;99.90;;;;;;5032269;28;20193;-73
2021/12/28 06:31:19;;;;;;;57.17;16.83;;;1.10;99.90;;;;;;5032047;28;20162;-73
2021/12/28 06:33:45;;;;;;;53.83;17.38;;;1.10;99.90;;;;;;5032206;28;20675;-73
2021/12/28 06:36:11;;;;;;;50.35;17.42;;;1.20;99.90;;;;;;5032015;28;20246;-73
2021/12/28 06:38:37;;;;;;;52.22;16.50;;;1.20;99.90;;;;;;5014144;28;20174;-72
2021/12/28 06:41:06;;;;;;;45.40;17.20;;;1.20;99.90;;;;;;5014193;28;20202;-73
2021/12/28 06:43:32;;;;;;;56.10;19.17;;;1.10;99.90;;;;;;5031738;28;20150;-73
2021/12/28 06:45:58;;;;;;;52.28;19.38;;;1.10;99.90;;;;;;5031912;28;20169;-73
2021/12/28 06:48:24;;;;;;;49.30;17.77;;;1.10;99.90;;;;;;5031827;28;20221;-73
2021/12/28 06:50:50;;;;;;;56.85;18.40;;;1.10;99.90;;;;;;5014088;28;20202;-73
2021/12/28 06:53:17;;;;;;;66.95;18.48;;;1.10;99.90;;;;;;5031625;28;20165;-72
2021/12/28 06:55:43;;;;;;;57.75;17.20;;;1.10;99.90;;;;;;5031705;28;20200;-73
2021/12/28 06:58:09;;;;;;;50.83;17.90;;;1.00;99.90;;;;;;5031547;28;20241;-73
2021/12/28 07:00:37;;;;;;;63.65;20.35;;;1.00;99.90;;;;;;5029991;28;20230;-73
2021/12/28 07:03:04;;;;;;;56.30;18.58;;;1.00;99.90;;;;;;5031531;28;20639;-73
2021/12/28 07:05:30;;;;;;;50.53;17.90;;;1.00;99.90;;;;;;5031594;28;20150;-73
2021/12/28 07:07:56;;;;;;;53.83;16.95;;;1.00;99.90;;;;;;5031484;28;20185;-72
2021/12/28 07:10:22;;;;;;;50.03;17.13;;;1.00;99.90;;;;;;5031212;28;20205;-72
2021/12/28 07:12:50;;;;;;;45.58;16.60;;;1.10;99.90;;;;;;5031110;28;20158;-73
2021/12/28 07:15:20;;;;;;;52.42;18.00;;;1.20;99.90;;;;;;5031349;28;20193;-73
2021/12/28 07:17:47;;;;;;;50.10;18.00;;;1.20;99.90;;;;;;5031215;28;20150;-72
2021/12/28 07:20:14;;;;;;;56.35;19.58;;;1.30;99.90;;;;;;5013216;28;20233;-73
2021/12/28 07:22:41;;;;;;;48.70;16.13;;;1.30;99.90;;;;;;5030961;28;20170;-73
2021/12/28 07:25:09;;;;;;;43.60;17.20;;;1.30;99.90;;;;;;5031109;28;20634;-73
2021/12/28 07:27:35;;;;;;;43.13;17.67;;;1.30;99.90;;;;;;5030917;28;20166;-72
2021/12/28 07:30:05;;;;;;;47.88;17.33;;;1.30;99.90;;;;;;5030885;28;20197;-72
2021/12/28 07:32:31;;;;;;;53.33;17.08;;;1.20;99.90;;;;;;5030941;28;20165;-73
2021/12/28 07:34:57;;;;;;;48.75;19.45;;;1.20;99.90;;;;;;5013146;28;20567;-73
2021/12/28 07:37:23;;;;;;;60.70;18.17;;;1.10;99.90;;;;;;5030829;28;20154;-73
2021/12/28 07:39:50;;;;;;;49.80;16.63;;;1.10;99.90;;;;;;5030738;28;20194;-73
2021/12/28 07:42:17;;;;;;;51.35;16.95;;;1.10;99.90;;;;;;5030704;28;20150;-73
2021/12/28 07:44:43;;;;;;;56.92;19.65;;;1.10;99.90;;;;;;5030914;28;20169;-73
2021/12/28 07:47:09;;;;;;;45.67;15.82;;;1.10;99.90;;;;;;5030881;28;20162;-73
2021/12/28 07:49:35;;;;;;;54.13;17.90;;;1.10;99.90;;;;;;5030455;28;20197;-72
2021/12/28 07:52:02;;;;;;;58.38;17.20;;;1.20;99.90;;;;;;5030660;28;20182;-73
2021/12/28 07:54:27;;;;;;;55.20;18.55;;;1.30;99.90;;;;;;5030636;28;20204;-72
2021/12/28 07:56:53;;;;;;;52.25;18.67;;;1.40;99.90;;;;;;5030294;28;20189;-73
2021/12/28 07:59:19;;;;;;;50.83;16.60;;;1.40;99.90;;;;;;5012406;28;20289;-73
2021/12/28 08:01:45;;;;;;;50.65;17.02;;;1.50;99.90;;;;;;5030540;28;20245;-72
2021/12/28 08:04:11;;;;;;;50.55;17.65;;;1.40;99.90;;;;;;5012597;28;20181;-72
2021/12/28 08:06:37;;;;;;;49.33;17.98;;;1.50;99.90;;;;;;5030190;28;20178;-72
2021/12/28 08:09:03;;;;;;;47.67;16.73;;;1.40;99.90;;;;;;5029952;28;20272;-73
2021/12/28 08:11:29;;;;;;;43.10;16.67;;;1.40;99.90;;;;;;5012278;28;20170;-73
2021/12/28 08:13:55;;;;;;;49.55;19.60;;;1.50;99.90;;;;;;5030310;28;20165;-72
2021/12/28 08:16:21;;;;;;;49.88;19.55;;;1.50;99.90;;;;;;5030166;28;20257;-72
2021/12/28 08:18:48;;;;;;;51.10;19.33;;;1.50;99.90;;;;;;5012260;28;20166;-73
2021/12/28 08:21:14;;;;;;;44.15;17.25;;;1.60;99.90;;;;;;5010428;28;20214;-73
2021/12/28 08:23:40;;;;;;;50.15;16.17;;;1.60;99.90;;;;;;5028864;28;20183;-73
2021/12/28 08:26:06;;;;;;;51.45;19.05;;;1.70;99.90;;;;;;5029891;28;20173;-72
2021/12/28 08:28:32;;;;;;;58.95;16.45;;;1.70;99.90;;;;;;5029896;28;20158;-73
2021/12/28 08:30:58;;;;;;;56.83;19.88;;;1.70;99.90;;;;;;5028603;28;20177;-72
2021/12/28 08:33:24;;;;;;;43.92;17.88;;;1.70;99.90;;;;;;5029812;28;20170;-72
2021/12/28 08:35:50;;;;;;;51.63;17.20;;;1.70;99.90;;;;;;5029709;28;20206;-72
2021/12/28 08:38:17;;;;;;;57.00;17.60;;;1.80;99.90;;;;;;5029780;28;20165;-72
2021/12/28 08:40:44;;;;;;;52.65;19.92;;;1.80;99.90;;;;;;5029682;28;20190;-72
2021/12/28 08:43:11;;;;;;;55.92;16.75;;;1.80;99.90;;;;;;5029570;28;20158;-72
2021/12/28 08:45:39;;;;;;;49.58;17.15;;;1.80;99.90;;;;;;5029574;28;20158;-72
2021/12/28 08:48:07;;;;;;;58.00;18.27;;;1.90;99.90;;;;;;5029524;28;20202;-72
2021/12/28 08:50:35;;;;;;;56.47;18.17;;;1.80;99.90;;;;;;5029490;28;20209;-72
2021/12/28 08:53:01;;;;;;;42.53;17.55;;;1.90;99.90;;;;;;5029696;28;20617;-72
2021/12/28 08:55:27;;;;;;;45.20;18.08;;;2.00;99.90;;;;;;5028321;28;20182;-72
2021/12/28 08:57:54;;;;;;;44.60;15.75;;;2.10;99.90;;;;;;5028343;28;20216;-72
2021/12/28 09:00:28;;;;;;;42.47;14.43;;;2.10;99.90;;;;;;5029073;28;20222;-72
2021/12/28 09:02:55;;;;;;;54.22;16.90;;;2.20;99.90;;;;;;5011689;28;20178;-72
2021/12/28 09:05:23;;;;;;;51.50;15.63;;;2.00;99.90;;;;;;5027615;28;20173;-72
2021/12/28 09:07:51;;;;;;;34.95;13.80;;;1.90;99.90;;;;;;5029112;28;20186;-72
2021/12/28 09:10:17;;;;;;;45.28;15.50;;;1.90;99.90;;;;;;5029027;28;20181;-72
2021/12/28 09:12:43;;;;;;;42.42;13.85;;;1.80;99.90;;;;;;5029299;28;20224;-73
2021/12/28 09:15:11;;;;;;;43.75;14.43;;;1.70;99.90;;;;;;5011289;28;20217;-72
2021/12/28 09:17:39;;;;;;;36.50;14.05;;;1.60;99.90;;;;;;5011480;28;20169;-72
2021/12/28 09:20:12;;;;;;;36.05;13.05;;;1.60;99.90;;;;;;5028839;28;20249;-72
2021/12/28 09:22:38;;;;;;;32.75;13.20;;;1.70;99.90;;;;;;5028461;28;20228;-72
2021/12/28 09:25:05;;;;;;;43.03;14.93;;;1.70;99.90;;;;;;5028813;28;20217;-72
2021/12/28 09:27:32;;;;;;;30.15;13.40;;;1.80;99.90;;;;;;5028958;28;20169;-72
2021/12/28 09:29:57;;;;;;;37.65;14.55;;;1.80;99.90;;;;;;5011186;28;20201;-72
2021/12/28 09:32:23;;;;;;;34.67;13.90;;;1.80;99.90;;;;;;5028980;28;20166;-72
2021/12/28 09:34:52;;;;;;;35.85;14.00;;;1.90;99.90;;;;;;5028860;28;20150;-72
2021/12/28 09:37:21;;;;;;;32.60;13.18;;;1.90;99.90;;;;;;5028848;28;20147;-72
2021/12/28 09:39:48;;;;;;;31.73;12.85;;;2.00;99.90;;;;;;5028904;28;20189;-72
2021/12/28 09:42:15;;;;;;;30.38;12.73;;;2.00;99.90;;;;;;5028914;28;20245;-72
2021/12/28 09:44:41;;;;;;;31.52;12.95;;;2.10;99.90;;;;;;5028780;28;20682;-72
2021/12/28 09:47:08;;;;;;;27.40;12.30;;;2.10;99.90;;;;;;5028915;28;20166;-72
2021/12/28 09:49:35;;;;;;;34.97;14.20;;;2.10;99.90;;;;;;5028809;28;20278;-72
2021/12/28 09:52:04;;;;;;;36.50;14.13;;;2.10;99.90;;;;;;5028822;28;20190;-73
2021/12/28 09:54:32;;;;;;;35.22;11.75;;;2.10;99.90;;;;;;5028811;28;20154;-73
2021/12/28 09:57:00;;;;;;;27.77;13.35;;;2.20;99.90;;;;;;5028959;28;20201;-73
2021/12/28 09:59:27;;;;;;;31.00;13.13;;;2.30;99.90;;;;;;5028541;28;20291;-72
2021/12/28 10:01:56;;;;;;;42.63;13.52;;;2.20;99.90;;;;;;5028807;28;20158;-73
2021/12/28 10:04:22;;;;;;;30.45;13.18;;;2.20;99.90;;;;;;5011056;28;20174;-73
2021/12/28 10:06:48;;;;;;;32.88;13.57;;;2.10;99.90;;;;;;5011075;28;20181;-73
2021/12/28 10:09:16;;;;;;;36.78;13.38;;;2.00;99.90;;;;;;5028582;28;20238;-72
2021/12/28 10:11:55;;;;;;;27.23;11.77;;;2.10;99.90;;;;;;5028590;28;20182;-73
2021/12/28 10:14:26;;;;;;;40.55;12.88;;;2.10;99.90;;;;;;5028643;28;20186;-72
2021/12/28 10:17:01;;;;;;;28.85;13.23;;;2.10;99.90;;;;;;5023048;28;20194;-73
2021/12/28 10:19:44;;;;;;;28.15;11.75;;;2.30;99.90;;;;;;5013765;28;20252;-73
2021/12/28 10:22:27;;;;;;;25.70;11.90;;;2.30;99.90;;;;;;5028363;28;20178;-72
2021/12/28 10:24:57;;;;;;;31.30;11.95;;;2.30;99.90;;;;;;5027690;28;20237;-73
2021/12/28 10:27:26;;;;;;;25.67;11.30;;;2.20;99.90;;;;;;5028512;28;20190;-73
2021/12/28 10:29:53;;;;;;;28.08;11.93;;;2.40;99.90;;;;;;5028334;28;20196;-73
2021/12/28 10:32:22;;;;;;;36.10;10.45;;;2.40;99.90;;;;;;5028541;28;20154;-73
2021/12/28 10:34:55;;;;;;;28.83;12.18;;;2.50;99.90;;;;;;5011946;28;20245;-72
2021/12/28 10:37:24;;;;;;;26.52;12.68;;;2.40;99.90;;;;;;5031948;28;20151;-73
2021/12/28 10:39:54;;;;;;;30.67;11.98;;;2.20;99.90;;;;;;5031731;28;20181;-72
2021/12/28 10:42:49;;;;;;;29.98;12.00;;;2.10;99.90;;;;;;5014238;28;20162;-72
2021/12/28 10:45:26;;;;;;;24.83;10.05;;;2.10;99.90;;;;;;5031909;28;20185;-73
2021/12/28 10:47:54;;;;;;;27.65;10.90;;;2.10;99.90;;;;;;5029043;28;20170;-72
2021/12/28 10:50:29;;;;;;;23.08;10.02;;;2.00;99.90;;;;;;4994425;28;20178;-72
2021/12/28 10:53:21;;;;;;;28.17;11.40;;;2.10;99.90;;;;;;5012070;28;20166;-72
2021/12/28 10:55:56;;;;;;;29.45;9.93;;;2.30;99.90;;;;;;5012025;28;20206;-72
2021/12/28 10:58:41;;;;;;;28.08;10.25;;;2.30;99.90;;;;;;5011950;28;20542;-72
2021/12/28 11:01:12;;;;;;;23.75;10.48;;;2.40;99.90;;;;;;5029273;28;20228;-72
2021/12/28 11:03:44;;;;;;;26.00;11.18;;;2.50;99.90;;;;;;5031538;28;20164;-72
2021/12/28 11:06:14;;;;;;;23.73;10.35;;;2.50;99.90;;;;;;5030438;28;20170;-72
2021/12/28 11:08:42;;;;;;;24.45;9.93;;;2.40;99.90;;;;;;5032790;28;20198;-72
2021/12/28 11:11:12;;;;;;;25.90;10.90;;;2.40;99.90;;;;;;5069823;28;20169;-72
2021/12/28 11:13:38;;;;;;;28.38;11.68;;;2.40;99.90;;;;;;5071143;28;20160;-73
2021/12/28 11:16:08;;;;;;;25.85;12.35;;;2.40;99.90;;;;;;5071121;28;20214;-71
2021/12/28 11:18:45;;;;;;;31.10;12.68;;;2.30;99.90;;;;;;5071062;28;20211;-72
2021/12/28 11:21:38;;;;;;;27.20;10.98;;;2.40;99.90;;;;;;5051254;28;20218;-73
2021/12/28 11:24:13;;;;;;;27.08;11.43;;;2.30;99.90;;;;;;5050891;28;20551;-73
2021/12/28 11:26:48;;;;;;;23.13;10.73;;;2.30;99.90;;;;;;5051007;28;20164;-72
2021/12/28 11:29:17;;;;;;;23.80;9.85;;;2.10;99.90;;;;;;5049294;28;20204;-73
2021/12/28 11:31:47;;;;;;;27.77;10.02;;;2.00;99.90;;;;;;5050958;28;20225;-73
2021/12/28 11:34:22;;;;;;;30.23;13.00;;;2.00;99.90;;;;;;5050957;28;20221;-73
2021/12/28 11:36:56;;;;;;;30.48;12.65;;;2.00;99.90;;;;;;5050667;28;20571;-72
2021/12/28 11:39:26;;;;;;;30.77;11.93;;;1.90;99.90;;;;;;5050797;28;20192;-74
2021/12/28 11:41:54;;;;;;;28.58;12.45;;;1.90;99.90;;;;;;5049476;28;20169;-75
2021/12/28 11:44:22;;;;;;;25.98;11.38;;;1.80;99.90;;;;;;5050544;28;20157;-74
2021/12/28 11:46:49;;;;;;;38.80;11.85;;;1.80;99.90;;;;;;5049481;28;20172;-74
2021/12/28 11:49:16;;;;;;;24.67;10.88;;;2.00;99.90;;;;;;5050363;28;20185;-74
2021/12/28 11:51:47;;;;;;;29.80;11.60;;;2.00;99.90;;;;;;5050645;28;20664;-74
2021/12/28 11:54:16;;;;;;;21.55;9.85;;;1.90;99.90;;;;;;5050063;28;20219;-74
2021/12/28 11:56:47;;;;;;;22.48;11.63;;;1.80;99.90;;;;;;5050301;28;20239;-74
2021/12/28 11:59:28;;;;;;;36.22;11.00;;;1.90;99.90;;;;;;5049612;28;20200;-74
2021/12/28 12:02:12;;;;;;;32.65;12.18;;;1.90;99.90;;;;;;5030496;28;20165;-75
2021/12/28 12:04:43;;;;;;;28.98;10.32;;;1.80;99.90;;;;;;5012315;28;20701;-74
2021/12/28 12:07:14;;;;;;;29.88;11.85;;;1.90;99.90;;;;;;5030269;28;20604;-74
2021/12/28 12:09:49;;;;;;;24.55;10.70;;;1.90;99.90;;;;;;5030191;28;20209;-74
2021/12/28 12:12:17;;;;;;;28.98;10.77;;;2.10;99.90;;;;;;5012369;28;20169;-74
2021/12/28 12:15:09;;;;;;;32.50;12.73;;;2.10;99.90;;;;;;5029899;28;20229;-75
2021/12/28 12:17:39;;;;;;;28.65;11.18;;;2.20;99.90;;;;;;5017036;28;20217;-73
2021/12/28 12:20:09;;;;;;;27.83;10.80;;;2.10;99.90;;;;;;5029748;28;20265;-74
2021/12/28 12:22:38;;;;;;;29.70;12.32;;;1.90;99.90;;;;;;5029903;28;20170;-74
2021/12/28 12:25:07;;;;;;;32.72;13.45;;;2.00;99.90;;;;;;5008863;28;20198;-74
2021/12/28 12:27:49;;;;;;;22.45;12.00;;;1.90;99.90;;;;;;5010216;28;20171;-74
2021/12/28 12:30:17;;;;;;;23.90;10.93;;;1.90;99.90;;;;;;5010221;28;20159;-74
2021/12/28 12:32:58;;;;;;;25.55;10.88;;;2.00;99.90;;;;;;5010189;28;20238;-74
2021/12/28 12:35:29;;;;;;;25.38;11.43;;;2.10;99.90;;;;;;5012985;28;20222;-74
2021/12/28 12:37:54;;;;;;;29.52;11.68;;;2.00;99.90;;;;;;5018439;28;20162;-75
2021/12/28 12:40:20;;;;;;;24.00;10.85;;;2.00;99.90;;;;;;5002303;28;20171;-75
2021/12/28 12:43:45;;;;;;;30.83;13.10;;;2.00;99.90;;;;;;5017812;28;20174;-74
2021/12/28 12:46:11;;;;;;;28.02;11.93;;;2.00;99.90;;;;;;4937226;29;20193;-75
2021/12/28 12:48:37;;;;;;;31.48;12.05;;;2.10;99.90;;;;;;4939689;29;20850;-74